sensor_id;sensor_type;location;lat;lon;timestamp;pressure;altitude;pressure_sealevel;temperature;humidity
74103;BME280;62853;46.166;3.640;2023-02-02T00:00:42;102047.47;;;6.41;100.00
74103;BME280;62853;46.166;3.640;2023-02-02T00:03:07;102051.16;;;6.30;100.00
74103;BME280;62853;46.166;3.640;2023-02-02T00:05:35;102049.47;;;6.28;100.00
74103;BME280;62853;46.166;3.640;2023-02-02T00:08:00;102039.03;;;6.25;100.00
74103;BME280;62853;46.166;3.640;2023-02-02T00:10:25;102055.53;;;6.28;100.00
74103;BME280;62853;46.166;3.640;2023-02-02T00:12:51;102038.06;;;6.30;100.00
74103;BME280;62853;46.166;3.640;2023-02-02T00:15:16;102031.13;;;6.29;100.00
74103;BME280;62853;46.166;3.640;2023-02-02T00:17:41;102042.38;;;6.35;100.00
74103;BME280;62853;46.166;3.640;2023-02-02T00:20:07;102044.09;;;6.34;100.00
74103;BME280;62853;46.166;3.640;2023-02-02T00:22:32;102036.31;;;6.32;100.00
74103;BME280;62853;46.166;3.640;2023-02-02T00:24:59;102045.75;;;6.40;100.00
74103;BME280;62853;46.166;3.640;2023-02-02T00:27:24;102041.47;;;6.36;100.00
74103;BME280;62853;46.166;3.640;2023-02-02T00:29:50;102039.56;;;6.44;100.00
74103;BME280;62853;46.166;3.640;2023-02-02T00:32:18;102035.88;;;6.54;100.00
74103;BME280;62853;46.166;3.640;2023-02-02T00:34:44;102032.31;;;6.60;100.00
74103;BME280;62853;46.166;3.640;2023-02-02T00:37:09;102036.75;;;6.56;100.00
74103;BME280;62853;46.166;3.640;2023-02-02T00:39:35;102041.91;;;6.59;100.00
74103;BME280;62853;46.166;3.640;2023-02-02T00:42:00;102046.22;;;6.62;100.00
74103;BME280;62853;46.166;3.640;2023-02-02T00:44:25;102030.53;;;6.62;100.00
74103;BME280;62853;46.166;3.640;2023-02-02T00:47:09;102039.91;;;6.72;100.00
74103;BME280;62853;46.166;3.640;2023-02-02T00:49:35;102052.03;;;6.76;100.00
74103;BME280;62853;46.166;3.640;2023-02-02T00:52:00;102048.25;;;6.93;100.00
74103;BME280;62853;46.166;3.640;2023-02-02T00:54:26;102044.66;;;6.98;100.00
74103;BME280;62853;46.166;3.640;2023-02-02T00:56:52;102054.09;;;7.05;100.00
74103;BME280;62853;46.166;3.640;2023-02-02T00:59:17;102042.84;;;7.02;100.00
74103;BME280;62853;46.166;3.640;2023-02-02T01:01:42;102048.03;;;7.03;100.00
74103;BME280;62853;46.166;3.640;2023-02-02T01:04:08;102058.31;;;7.13;100.00
74103;BME280;62853;46.166;3.640;2023-02-02T01:06:33;102050.31;;;7.20;100.00
74103;BME280;62853;46.166;3.640;2023-02-02T01:08:59;102050.50;;;7.10;100.00
74103;BME280;62853;46.166;3.640;2023-02-02T01:11:24;102050.38;;;7.17;100.00
74103;BME280;62853;46.166;3.640;2023-02-02T01:13:50;102049.56;;;7.14;100.00
74103;BME280;62853;46.166;3.640;2023-02-02T01:16:15;102041.53;;;7.21;100.00
74103;BME280;62853;46.166;3.640;2023-02-02T01:18:41;102041.50;;;7.23;100.00
74103;BME280;62853;46.166;3.640;2023-02-02T01:21:09;102045.78;;;7.29;100.00
74103;BME280;62853;46.166;3.640;2023-02-02T01:23:36;102042.19;;;7.31;100.00
74103;BME280;62853;46.166;3.640;2023-02-02T01:26:05;102042.28;;;7.26;100.00
74103;BME280;62853;46.166;3.640;2023-02-02T01:28:30;102037.97;;;7.25;100.00
74103;BME280;62853;46.166;3.640;2023-02-02T01:30:56;102043.91;;;7.34;100.00
74103;BME280;62853;46.166;3.640;2023-02-02T01:33:23;102041.25;;;7.35;100.00
74103;BME280;62853;46.166;3.640;2023-02-02T01:35:51;102046.53;;;7.34;100.00
74103;BME280;62853;46.166;3.640;2023-02-02T01:38:17;102055.19;;;7.37;100.00
74103;BME280;62853;46.166;3.640;2023-02-02T01:40:51;102046.63;;;7.29;100.00
74103;BME280;62853;46.166;3.640;2023-02-02T01:46:09;102051.06;;;7.25;100.00
74103;BME280;62853;46.166;3.640;2023-02-02T01:48:35;102055.53;;;7.22;100.00
74103;BME280;62853;46.166;3.640;2023-02-02T01:51:05;102046.66;;;7.28;100.00
74103;BME280;62853;46.166;3.640;2023-02-02T01:53:32;102049.19;;;7.32;100.00
74103;BME280;62853;46.166;3.640;2023-02-02T01:55:58;102048.13;;;7.39;100.00
74103;BME280;62853;46.166;3.640;2023-02-02T01:58:28;102045.78;;;7.29;100.00
74103;BME280;62853;46.166;3.640;2023-02-02T02:00:55;102047.53;;;7.26;100.00
74103;BME280;62853;46.166;3.640;2023-02-02T02:03:24;102043.19;;;7.27;100.00
74103;BME280;62853;46.166;3.640;2023-02-02T02:05:51;102043.88;;;7.35;100.00
74103;BME280;62853;46.166;3.640;2023-02-02T02:08:21;102042.38;;;7.23;100.00
74103;BME280;62853;46.166;3.640;2023-02-02T02:10:47;102045.78;;;7.27;100.00
74103;BME280;62853;46.166;3.640;2023-02-02T02:13:13;102041.31;;;7.32;100.00
74103;BME280;62853;46.166;3.640;2023-02-02T02:15:46;102048.19;;;7.36;100.00
74103;BME280;62853;46.166;3.640;2023-02-02T02:18:39;102048.25;;;7.33;100.00
74103;BME280;62853;46.166;3.640;2023-02-02T02:24:28;102044.06;;;7.26;100.00
74103;BME280;62853;46.166;3.640;2023-02-02T02:30:40;102048.44;;;7.25;100.00
74103;BME280;62853;46.166;3.640;2023-02-02T02:33:52;102045.09;;;7.19;100.00
74103;BME280;62853;46.166;3.640;2023-02-02T02:39:34;102050.31;;;7.20;100.00
74103;BME280;62853;46.166;3.640;2023-02-02T02:42:08;102049.44;;;7.18;100.00
74103;BME280;62853;46.166;3.640;2023-02-02T02:44:35;102059.06;;;7.18;100.00
74103;BME280;62853;46.166;3.640;2023-02-02T02:47:01;102052.91;;;7.22;100.00
74103;BME280;62853;46.166;3.640;2023-02-02T02:49:26;102049.50;;;7.17;100.00
74103;BME280;62853;46.166;3.640;2023-02-02T02:51:53;102052.13;;;7.17;100.00
74103;BME280;62853;46.166;3.640;2023-02-02T02:54:32;102056.53;;;7.15;100.00
74103;BME280;62853;46.166;3.640;2023-02-02T03:05:32;102065.00;;;7.28;100.00
74103;BME280;62853;46.166;3.640;2023-02-02T03:10:54;102056.50;;;7.16;100.00
74103;BME280;62853;46.166;3.640;2023-02-02T03:13:21;102057.50;;;7.11;100.00
74103;BME280;62853;46.166;3.640;2023-02-02T03:15:47;102064.44;;;7.12;100.00
74103;BME280;62853;46.166;3.640;2023-02-02T03:18:13;102057.50;;;7.11;100.00
74103;BME280;62853;46.166;3.640;2023-02-02T03:20:40;102055.75;;;7.10;100.00
74103;BME280;62853;46.166;3.640;2023-02-02T03:23:07;102047.16;;;7.03;100.00
74103;BME280;62853;46.166;3.640;2023-02-02T03:25:32;102054.94;;;7.07;100.00
74103;BME280;62853;46.166;3.640;2023-02-02T03:27:57;102054.97;;;7.06;100.00
74103;BME280;62853;46.166;3.640;2023-02-02T03:30:23;102061.03;;;7.08;100.00
74103;BME280;62853;46.166;3.640;2023-02-02T03:32:49;102060.09;;;7.12;100.00
74103;BME280;62853;46.166;3.640;2023-02-02T03:35:16;102054.75;;;7.17;100.00
74103;BME280;62853;46.166;3.640;2023-02-02T03:37:41;102051.41;;;7.10;100.00
74103;BME280;62853;46.166;3.640;2023-02-02T03:40:07;102042.66;;;7.10;100.00
74103;BME280;62853;46.166;3.640;2023-02-02T03:42:33;102055.53;;;7.22;100.00
74103;BME280;62853;46.166;3.640;2023-02-02T03:44:58;102046.75;;;7.23;100.00
74103;BME280;62853;46.166;3.640;2023-02-02T03:47:27;102044.09;;;7.24;100.00
74103;BME280;62853;46.166;3.640;2023-02-02T03:49:52;102050.16;;;7.26;100.00
74103;BME280;62853;46.166;3.640;2023-02-02T03:52:18;102041.66;;;7.17;100.00
74103;BME280;62853;46.166;3.640;2023-02-02T03:54:43;102057.25;;;7.21;100.00
74103;BME280;62853;46.166;3.640;2023-02-02T03:57:08;102057.28;;;7.20;100.00
74103;BME280;62853;46.166;3.640;2023-02-02T03:59:34;102063.50;;;7.16;100.00
74103;BME280;62853;46.166;3.640;2023-02-02T04:01:59;102065.28;;;7.14;100.00
74103;BME280;62853;46.166;3.640;2023-02-02T04:04:24;102076.31;;;7.28;100.00
74103;BME280;62853;46.166;3.640;2023-02-02T04:06:50;102077.31;;;7.24;100.00
74103;BME280;62853;46.166;3.640;2023-02-02T04:09:15;102082.47;;;7.27;100.00
74103;BME280;62853;46.166;3.640;2023-02-02T04:11:40;102060.63;;;7.26;100.00
74103;BME280;62853;46.166;3.640;2023-02-02T04:14:06;102074.38;;;7.38;100.00
74103;BME280;62853;46.166;3.640;2023-02-02T04:16:31;102068.38;;;7.33;100.00
74103;BME280;62853;46.166;3.640;2023-02-02T04:18:59;102069.13;;;7.38;100.00
74103;BME280;62853;46.166;3.640;2023-02-02T04:21:24;102063.19;;;7.30;100.00
74103;BME280;62853;46.166;3.640;2023-02-02T04:23:49;102065.84;;;7.28;100.00
74103;BME280;62853;46.166;3.640;2023-02-02T04:26:15;102077.16;;;7.30;100.00
74103;BME280;62853;46.166;3.640;2023-02-02T04:28:40;102066.78;;;7.25;100.00
74103;BME280;62853;46.166;3.640;2023-02-02T04:31:05;102069.50;;;7.21;100.00
74103;BME280;62853;46.166;3.640;2023-02-02T04:33:33;102072.03;;;7.25;100.00
74103;BME280;62853;46.166;3.640;2023-02-02T04:35:59;102077.16;;;7.30;100.00
74103;BME280;62853;46.166;3.640;2023-02-02T04:38:24;102084.22;;;7.26;100.00
74103;BME280;62853;46.166;3.640;2023-02-02T04:40:50;102092.78;;;7.35;100.00
74103;BME280;62853;46.166;3.640;2023-02-02T04:43:15;102095.63;;;7.25;100.00
74103;BME280;62853;46.166;3.640;2023-02-02T04:45:41;102088.50;;;7.32;100.00
74103;BME280;62853;46.166;3.640;2023-02-02T04:48:06;102085.09;;;7.27;100.00
74103;BME280;62853;46.166;3.640;2023-02-02T04:50:32;102087.75;;;7.25;100.00
74103;BME280;62853;46.166;3.640;2023-02-02T04:52:57;102080.03;;;7.18;100.00
74103;BME280;62853;46.166;3.640;2023-02-02T04:55:23;102077.34;;;7.22;100.00
74103;BME280;62853;46.166;3.640;2023-02-02T04:57:49;102086.13;;;7.18;100.00
74103;BME280;62853;46.166;3.640;2023-02-02T05:00:14;102077.34;;;7.21;100.00
74103;BME280;62853;46.166;3.640;2023-02-02T05:02:41;102080.75;;;7.26;100.00
74103;BME280;62853;46.166;3.640;2023-02-02T05:05:10;102075.50;;;7.26;100.00
74103;BME280;62853;46.166;3.640;2023-02-02T05:07:35;102071.28;;;7.19;100.00
74103;BME280;62853;46.166;3.640;2023-02-02T05:10:04;102058.25;;;7.16;100.00
74103;BME280;62853;46.166;3.640;2023-02-02T05:12:30;102067.91;;;7.14;100.00
74103;BME280;62853;46.166;3.640;2023-02-02T05:14:55;102072.44;;;7.05;100.00
74103;BME280;62853;46.166;3.640;2023-02-02T05:17:20;102083.47;;;7.20;100.00
74103;BME280;62853;46.166;3.640;2023-02-02T05:19:46;102088.00;;;7.13;100.00
74103;BME280;62853;46.166;3.640;2023-02-02T05:22:11;102103.47;;;7.25;100.00
74103;BME280;62853;46.166;3.640;2023-02-02T05:24:37;102102.75;;;7.19;100.00
74103;BME280;62853;46.166;3.640;2023-02-02T05:27:02;102096.69;;;7.15;100.00
74103;BME280;62853;46.166;3.640;2023-02-02T05:29:28;102099.16;;;7.23;100.00
74103;BME280;62853;46.166;3.640;2023-02-02T05:31:55;102099.97;;;7.25;100.00
74103;BME280;62853;46.166;3.640;2023-02-02T05:34:20;102105.34;;;7.20;100.00
74103;BME280;62853;46.166;3.640;2023-02-02T05:36:46;102094.81;;;7.22;100.00
74103;BME280;62853;46.166;3.640;2023-02-02T05:39:12;102105.28;;;7.23;100.00
74103;BME280;62853;46.166;3.640;2023-02-02T05:41:37;102113.03;;;7.26;100.00
74103;BME280;62853;46.166;3.640;2023-02-02T05:44:03;102097.16;;;7.36;100.00
74103;BME280;62853;46.166;3.640;2023-02-02T05:46:29;102101.78;;;7.23;100.00
74103;BME280;62853;46.166;3.640;2023-02-02T05:48:54;102103.41;;;7.29;100.00
74103;BME280;62853;46.166;3.640;2023-02-02T05:51:24;102102.56;;;7.26;100.00
74103;BME280;62853;46.166;3.640;2023-02-02T05:53:52;102099.09;;;7.26;100.00
74103;BME280;62853;46.166;3.640;2023-02-02T05:56:18;102093.59;;;7.38;100.00
74103;BME280;62853;46.166;3.640;2023-02-02T05:58:44;102103.25;;;7.36;100.00
74103;BME280;62853;46.166;3.640;2023-02-02T06:01:11;102104.00;;;7.41;100.00
74103;BME280;62853;46.166;3.640;2023-02-02T06:03:37;102100.59;;;7.38;100.00
74103;BME280;62853;46.166;3.640;2023-02-02T06:06:02;102111.88;;;7.41;100.00
74103;BME280;62853;46.166;3.640;2023-02-02T06:08:28;102111.09;;;7.36;100.00
74103;BME280;62853;46.166;3.640;2023-02-02T06:10:53;102105.09;;;7.31;100.00
74103;BME280;62853;46.166;3.640;2023-02-02T06:13:18;102114.56;;;7.37;100.00
74103;BME280;62853;46.166;3.640;2023-02-02T06:15:44;102114.66;;;7.34;100.00
74103;BME280;62853;46.166;3.640;2023-02-02T06:18:09;102114.50;;;7.41;100.00
74103;BME280;62853;46.166;3.640;2023-02-02T06:20:35;102114.69;;;7.32;100.00
74103;BME280;62853;46.166;3.640;2023-02-02T06:23:00;102102.31;;;7.40;100.00
74103;BME280;62853;46.166;3.640;2023-02-02T06:25:26;102102.44;;;7.33;100.00
74103;BME280;62853;46.166;3.640;2023-02-02T06:27:59;102118.69;;;7.49;100.00
74103;BME280;62853;46.166;3.640;2023-02-02T06:30:25;102131.06;;;7.42;100.00
74103;BME280;62853;46.166;3.640;2023-02-02T06:32:51;102121.69;;;7.30;100.00
74103;BME280;62853;46.166;3.640;2023-02-02T06:35:16;102126.88;;;7.33;100.00
74103;BME280;62853;46.166;3.640;2023-02-02T06:37:42;102111.16;;;7.33;100.00
74103;BME280;62853;46.166;3.640;2023-02-02T06:40:08;102118.25;;;7.28;100.00
74103;BME280;62853;46.166;3.640;2023-02-02T06:42:33;102127.84;;;7.31;100.00
74103;BME280;62853;46.166;3.640;2023-02-02T06:45:00;102125.31;;;7.24;100.00
74103;BME280;62853;46.166;3.640;2023-02-02T06:47:25;102112.44;;;7.14;100.00
74103;BME280;62853;46.166;3.640;2023-02-02T06:49:51;102124.75;;;7.10;100.00
74103;BME280;62853;46.166;3.640;2023-02-02T06:52:17;102136.22;;;7.03;100.00
74103;BME280;62853;46.166;3.640;2023-02-02T06:54:42;102132.94;;;6.93;100.00
74103;BME280;62853;46.166;3.640;2023-02-02T06:57:07;102139.81;;;6.99;100.00
74103;BME280;62853;46.166;3.640;2023-02-02T06:59:33;102151.19;;;6.96;100.00
74103;BME280;62853;46.166;3.640;2023-02-02T07:01:59;102157.28;;;6.98;100.00
74103;BME280;62853;46.166;3.640;2023-02-02T07:04:24;102143.22;;;7.02;100.00
74103;BME280;62853;46.166;3.640;2023-02-02T07:06:49;102146.75;;;7.00;100.00
74103;BME280;62853;46.166;3.640;2023-02-02T07:09:15;102154.50;;;7.06;100.00
74103;BME280;62853;46.166;3.640;2023-02-02T07:11:41;102158.88;;;7.05;100.00
74103;BME280;62853;46.166;3.640;2023-02-02T07:14:06;102168.44;;;7.08;100.00
74103;BME280;62853;46.166;3.640;2023-02-02T07:16:32;102154.34;;;7.15;100.00
74103;BME280;62853;46.166;3.640;2023-02-02T07:18:57;102160.41;;;7.17;100.00
74103;BME280;62853;46.166;3.640;2023-02-02T07:21:25;102165.69;;;7.16;100.00
74103;BME280;62853;46.166;3.640;2023-02-02T07:23:59;102175.00;;;7.31;100.00
74103;BME280;62853;46.166;3.640;2023-02-02T07:26:25;102163.59;;;7.33;100.00
74103;BME280;62853;46.166;3.640;2023-02-02T07:28:51;102154.78;;;7.37;100.00
74103;BME280;62853;46.166;3.640;2023-02-02T07:31:20;102162.53;;;7.42;100.00
74103;BME280;62853;46.166;3.640;2023-02-02T07:33:46;102151.38;;;7.32;100.00
74103;BME280;62853;46.166;3.640;2023-02-02T07:36:14;102148.06;;;7.24;100.00
74103;BME280;62853;46.166;3.640;2023-02-02T07:38:44;102170.56;;;7.34;100.00
74103;BME280;62853;46.166;3.640;2023-02-02T07:41:10;102162.84;;;7.26;100.00
74103;BME280;62853;46.166;3.640;2023-02-02T07:43:36;102148.94;;;7.23;100.00
74103;BME280;62853;46.166;3.640;2023-02-02T07:46:04;102155.28;;;7.11;100.00
74103;BME280;62853;46.166;3.640;2023-02-02T07:48:32;102161.53;;;7.04;100.00
74103;BME280;62853;46.166;3.640;2023-02-02T07:51:04;102177.03;;;7.15;100.00
74103;BME280;62853;46.166;3.640;2023-02-02T07:53:30;102178.88;;;7.10;100.00
74103;BME280;62853;46.166;3.640;2023-02-02T07:56:11;102169.47;;;6.99;100.00
74103;BME280;62853;46.166;3.640;2023-02-02T07:58:36;102173.00;;;6.98;100.00
74103;BME280;62853;46.166;3.640;2023-02-02T08:01:03;102179.78;;;7.08;100.00
74103;BME280;62853;46.166;3.640;2023-02-02T08:03:29;102172.88;;;7.04;100.00
74103;BME280;62853;46.166;3.640;2023-02-02T08:05:55;102194.53;;;7.14;100.00
74103;BME280;62853;46.166;3.640;2023-02-02T08:08:21;102183.19;;;7.14;100.00
74103;BME280;62853;46.166;3.640;2023-02-02T08:10:51;102197.97;;;7.16;100.00
74103;BME280;62853;46.166;3.640;2023-02-02T08:13:17;102205.53;;;7.32;100.00
74103;BME280;62853;46.166;3.640;2023-02-02T08:15:42;102194.97;;;7.36;100.00
74103;BME280;62853;46.166;3.640;2023-02-02T08:18:08;102204.41;;;7.45;100.00
74103;BME280;62853;46.166;3.640;2023-02-02T08:20:33;102192.25;;;7.42;100.00
74103;BME280;62853;46.166;3.640;2023-02-02T08:22:59;102187.50;;;7.60;100.00
74103;BME280;62853;46.166;3.640;2023-02-02T08:25:24;102187.53;;;7.58;100.00
74103;BME280;62853;46.166;3.640;2023-02-02T08:27:53;102190.06;;;7.63;100.00
74103;BME280;62853;46.166;3.640;2023-02-02T08:30:19;102205.78;;;7.64;100.00
74103;BME280;62853;46.166;3.640;2023-02-02T08:32:44;102203.88;;;7.73;100.00
74103;BME280;62853;46.166;3.640;2023-02-02T08:35:10;102203.94;;;7.70;100.00
74103;BME280;62853;46.166;3.640;2023-02-02T08:37:35;102202.22;;;7.67;100.00
74103;BME280;62853;46.166;3.640;2023-02-02T08:40:01;102205.75;;;7.66;100.00
74103;BME280;62853;46.166;3.640;2023-02-02T08:42:26;102210.81;;;7.74;100.00
74103;BME280;62853;46.166;3.640;2023-02-02T08:44:51;102211.78;;;7.70;100.00
74103;BME280;62853;46.166;3.640;2023-02-02T08:47:17;102211.56;;;7.80;100.00
74103;BME280;62853;46.166;3.640;2023-02-02T08:49:42;102209.00;;;7.77;100.00
74103;BME280;62853;46.166;3.640;2023-02-02T08:52:09;102225.28;;;7.93;100.00
74103;BME280;62853;46.166;3.640;2023-02-02T08:54:34;102231.50;;;7.89;100.00
74103;BME280;62853;46.166;3.640;2023-02-02T08:56:59;102237.38;;;8.00;100.00
74103;BME280;62853;46.166;3.640;2023-02-02T08:59:25;102246.94;;;8.03;100.00
74103;BME280;62853;46.166;3.640;2023-02-02T09:01:50;102246.03;;;8.04;100.00
74103;BME280;62853;46.166;3.640;2023-02-02T09:04:16;102258.25;;;8.05;100.00
74103;BME280;62853;46.166;3.640;2023-02-02T09:06:42;102267.16;;;7.98;100.00
74103;BME280;62853;46.166;3.640;2023-02-02T09:09:11;102264.44;;;8.02;100.00
74103;BME280;62853;46.166;3.640;2023-02-02T09:11:37;102262.50;;;8.11;100.00
74103;BME280;62853;46.166;3.640;2023-02-02T09:14:03;102261.28;;;8.27;100.00
74103;BME280;62853;46.166;3.640;2023-02-02T09:16:31;102268.34;;;8.25;100.00
74103;BME280;62853;46.166;3.640;2023-02-02T09:18:57;102276.06;;;8.31;100.00
74103;BME280;62853;46.166;3.640;2023-02-02T09:21:23;102286.47;;;8.36;100.00
74103;BME280;62853;46.166;3.640;2023-02-02T09:23:49;102282.91;;;8.38;100.00
74103;BME280;62853;46.166;3.640;2023-02-02T09:26:19;102283.03;;;8.32;100.00
74103;BME280;62853;46.166;3.640;2023-02-02T09:28:52;102276.88;;;8.35;100.00
74103;BME280;62853;46.166;3.640;2023-02-02T09:31:18;102286.13;;;8.51;100.00
74103;BME280;62853;46.166;3.640;2023-02-02T09:33:44;102285.47;;;8.42;100.00
74103;BME280;62853;46.166;3.640;2023-02-02T09:36:11;102293.25;;;8.46;100.00
74103;BME280;62853;46.166;3.640;2023-02-02T09:38:37;102299.28;;;8.51;100.00
74103;BME280;62853;46.166;3.640;2023-02-02T09:49:23;102312.09;;;8.65;100.00
74103;BME280;62853;46.166;3.640;2023-02-02T09:51:55;102313.88;;;8.63;100.00
74103;BME280;62853;46.166;3.640;2023-02-02T09:54:26;102323.59;;;8.60;100.00
74103;BME280;62853;46.166;3.640;2023-02-02T09:56:54;102318.53;;;8.52;100.00
74103;BME280;62853;46.166;3.640;2023-02-02T09:59:24;102329.84;;;8.55;100.00
74103;BME280;62853;46.166;3.640;2023-02-02T10:01:54;102326.25;;;8.58;100.00
74103;BME280;62853;46.166;3.640;2023-02-02T10:04:35;102341.66;;;8.73;100.00
74103;BME280;62853;46.166;3.640;2023-02-02T10:07:12;102350.69;;;8.62;100.00
74103;BME280;62853;46.166;3.640;2023-02-02T10:10:04;102340.38;;;8.54;100.00
74103;BME280;62853;46.166;3.640;2023-02-02T10:12:38;102344.81;;;8.50;100.00
74103;BME280;62853;46.166;3.640;2023-02-02T10:18:33;102339.63;;;8.47;100.00
74103;BME280;62853;46.166;3.640;2023-02-02T10:21:06;102334.13;;;8.58;100.00
74103;BME280;62853;46.166;3.640;2023-02-02T10:23:37;102325.63;;;8.48;100.00
74103;BME280;62853;46.166;3.640;2023-02-02T10:26:22;102323.81;;;8.50;100.00
74103;BME280;62853;46.166;3.640;2023-02-02T10:29:15;102334.09;;;8.60;100.00
74103;BME280;62853;46.166;3.640;2023-02-02T10:31:48;102326.28;;;8.56;100.00
74103;BME280;62853;46.166;3.640;2023-02-02T10:34:22;102331.28;;;8.69;100.00
74103;BME280;62853;46.166;3.640;2023-02-02T10:45:42;102333.44;;;9.25;100.00
74103;BME280;62853;46.166;3.640;2023-02-02T10:48:13;102341.72;;;9.44;100.00
74103;BME280;62853;46.166;3.640;2023-02-02T10:50:43;102331.19;;;9.44;100.00
74103;BME280;62853;46.166;3.640;2023-02-02T10:53:14;102337.50;;;9.38;100.00
74103;BME280;62853;46.166;3.640;2023-02-02T10:55:45;102343.59;;;9.39;100.00
74103;BME280;62853;46.166;3.640;2023-02-02T10:58:25;102346.22;;;9.39;100.00
74103;BME280;62853;46.166;3.640;2023-02-02T11:00:55;102351.22;;;9.49;100.00
74103;BME280;62853;46.166;3.640;2023-02-02T11:03:27;102356.38;;;9.53;100.00
74103;BME280;62853;46.166;3.640;2023-02-02T11:05:53;102354.72;;;9.50;100.00
74103;BME280;62853;46.166;3.640;2023-02-02T11:08:41;102369.56;;;9.51;100.00
74103;BME280;62853;46.166;3.640;2023-02-02T11:11:19;102361.22;;;9.35;100.00
74103;BME280;62853;46.166;3.640;2023-02-02T11:13:50;102358.00;;;9.24;100.00
74103;BME280;62853;46.166;3.640;2023-02-02T11:16:20;102348.44;;;9.21;100.00
74103;BME280;62853;46.166;3.640;2023-02-02T11:18:46;102357.81;;;9.31;100.00
74103;BME280;62853;46.166;3.640;2023-02-02T11:21:18;102362.06;;;9.36;100.00
74103;BME280;62853;46.166;3.640;2023-02-02T11:23:54;102363.09;;;9.30;100.00
74103;BME280;62853;46.166;3.640;2023-02-02T11:26:22;102358.50;;;9.40;100.00
74103;BME280;62853;46.166;3.640;2023-02-02T11:28:49;102362.19;;;9.33;100.00
74103;BME280;62853;46.166;3.640;2023-02-02T11:31:34;102364.63;;;9.39;100.00
74103;BME280;62853;46.166;3.640;2023-02-02T11:34:15;102347.38;;;9.28;100.00
74103;BME280;62853;46.166;3.640;2023-02-02T11:37:29;102350.13;;;9.22;100.00
74103;BME280;62853;46.166;3.640;2023-02-02T11:39:49;102342.59;;;9.08;100.00
74103;BME280;62853;46.166;3.640;2023-02-02T11:42:19;102349.53;;;9.12;100.00
74103;BME280;62853;46.166;3.640;2023-02-02T11:44:48;102347.69;;;9.16;100.00
74103;BME280;62853;46.166;3.640;2023-02-02T11:47:21;102354.69;;;9.16;100.00
74103;BME280;62853;46.166;3.640;2023-02-02T11:49:49;102342.63;;;9.07;100.00
74103;BME280;62853;46.166;3.640;2023-02-02T11:52:21;102346.16;;;9.07;100.00
74103;BME280;62853;46.166;3.640;2023-02-02T11:54:52;102341.53;;;9.16;100.00
74103;BME280;62853;46.166;3.640;2023-02-02T11:57:20;102334.28;;;9.25;100.00
74103;BME280;62853;46.166;3.640;2023-02-02T11:59:49;102333.38;;;9.28;100.00
74103;BME280;62853;46.166;3.640;2023-02-02T12:02:22;102335.88;;;9.33;100.00
74103;BME280;62853;46.166;3.640;2023-02-02T12:04:50;102342.34;;;9.54;100.00
74103;BME280;62853;46.166;3.640;2023-02-02T12:07:31;102350.09;;;9.60;100.00
74103;BME280;62853;46.166;3.640;2023-02-02T12:10:10;102337.91;;;9.56;100.00
74103;BME280;62853;46.166;3.640;2023-02-02T12:12:59;102332.25;;;9.69;100.00
74103;BME280;62853;46.166;3.640;2023-02-02T12:22:06;102332.44;;;9.63;100.00
74103;BME280;62853;46.166;3.640;2023-02-02T12:26:37;102329.94;;;9.59;100.00
74103;BME280;62853;46.166;3.640;2023-02-02T12:36:34;102322.94;;;9.58;100.00
74103;BME280;62853;46.166;3.640;2023-02-02T12:39:08;102316.94;;;9.53;100.00
74103;BME280;62853;46.166;3.640;2023-02-02T12:47:27;102328.00;;;9.65;100.00
74103;BME280;62853;46.166;3.640;2023-02-02T12:52:36;102312.25;;;9.64;100.00
74103;BME280;62853;46.166;3.640;2023-02-02T12:55:16;102307.28;;;9.84;100.00
74103;BME280;62853;46.166;3.640;2023-02-02T13:00:53;102311.75;;;10.14;100.00
74103;BME280;62853;46.166;3.640;2023-02-02T13:03:35;102308.91;;;10.20;100.00
74103;BME280;62853;46.166;3.640;2023-02-02T13:09:12;102304.53;;;9.89;100.00
74103;BME280;62853;46.166;3.640;2023-02-02T13:12:00;102311.63;;;9.87;100.00
74103;BME280;62853;46.166;3.640;2023-02-02T13:14:41;102308.38;;;9.77;100.00
74103;BME280;62853;46.166;3.640;2023-02-02T13:17:22;102299.84;;;9.69;100.00
74103;BME280;62853;46.166;3.640;2023-02-02T13:19:51;102305.13;;;9.67;100.00
74103;BME280;62853;46.166;3.640;2023-02-02T13:22:23;102314.00;;;9.65;100.00
74103;BME280;62853;46.166;3.640;2023-02-02T13:24:52;102307.88;;;9.63;100.00
74103;BME280;62853;46.166;3.640;2023-02-02T13:27:20;102310.84;;;9.50;100.00
74103;BME280;62853;46.166;3.640;2023-02-02T13:29:56;102313.34;;;9.57;100.00
74103;BME280;62853;46.166;3.640;2023-02-02T13:32:29;102312.56;;;9.53;100.00
74103;BME280;62853;46.166;3.640;2023-02-02T13:35:03;102309.19;;;9.48;100.00
74103;BME280;62853;46.166;3.640;2023-02-02T13:38:24;102313.53;;;9.49;100.00
74103;BME280;62853;46.166;3.640;2023-02-02T13:40:37;102304.41;;;9.29;100.00
74103;BME280;62853;46.166;3.640;2023-02-02T13:43:26;102307.13;;;9.26;100.00
74103;BME280;62853;46.166;3.640;2023-02-02T14:05:37;102308.03;;;8.89;100.00
74103;BME280;62853;46.166;3.640;2023-02-02T14:08:06;102309.66;;;8.93;100.00
74103;BME280;62853;46.166;3.640;2023-02-02T14:13:13;102301.28;;;8.79;100.00
74103;BME280;62853;46.166;3.640;2023-02-02T14:16:01;102297.59;;;8.86;100.00
74103;BME280;62853;46.166;3.640;2023-02-02T14:26:54;102319.66;;;8.79;100.00
74103;BME280;62853;46.166;3.640;2023-02-02T14:34:45;102341.69;;;8.31;100.00
74103;BME280;62853;46.166;3.640;2023-02-02T14:45:28;102360.06;;;7.88;100.00
74103;BME280;62853;46.166;3.640;2023-02-02T14:48:19;102353.91;;;7.89;100.00
74103;BME280;62853;46.166;3.640;2023-02-02T14:50:54;102354.16;;;7.76;100.00
74103;BME280;62853;46.166;3.640;2023-02-02T14:56:11;102357.03;;;7.62;100.00
74103;BME280;62853;46.166;3.640;2023-02-02T14:58:59;102364.59;;;7.79;100.00
74103;BME280;62853;46.166;3.640;2023-02-02T15:01:28;102363.25;;;7.57;100.00